createdAt,value
2017-08-10T00:01:01.488Z,12.70
2017-08-10T00:03:30.554Z,15.43
2017-08-10T00:05:58.891Z,15.73
2017-08-10T00:08:27.225Z,17.40
2017-08-10T00:10:55.603Z,15.27
2017-08-10T00:13:24.707Z,16.27
2017-08-10T00:15:54.104Z,15.73
2017-08-10T00:18:22.478Z,14.80
2017-08-10T00:20:51.582Z,14.40
2017-08-10T00:23:20.259Z,15.27
2017-08-10T00:25:49.336Z,13.53
2017-08-10T00:28:17.844Z,14.73
2017-08-10T00:30:46.321Z,15.30
2017-08-10T00:33:14.702Z,14.37
2017-08-10T00:35:43.078Z,13.87
2017-08-10T00:38:12.171Z,13.63
2017-08-10T00:40:41.266Z,13.20
2017-08-10T00:43:09.573Z,13.90
2017-08-10T00:45:37.917Z,13.10
2017-08-10T00:48:06.222Z,13.13
2017-08-10T00:50:34.779Z,14.90
2017-08-10T00:53:03.157Z,15.80
2017-08-10T00:55:31.626Z,13.10
2017-08-10T00:57:59.946Z,16.70
2017-08-10T01:00:28.748Z,16.10
2017-08-10T01:02:57.166Z,14.00
2017-08-10T01:05:26.230Z,15.40
2017-08-10T01:07:54.642Z,18.47
2017-08-10T01:10:23.715Z,15.90
2017-08-10T01:12:52.131Z,14.07
2017-08-10T01:15:21.192Z,16.80
2017-08-10T01:17:49.687Z,14.43
2017-08-10T01:20:18.012Z,17.47
2017-08-10T01:22:46.358Z,16.70
2017-08-10T01:25:14.831Z,15.63
2017-08-10T01:27:43.900Z,15.60
2017-08-10T01:30:12.303Z,17.03
2017-08-10T01:32:41.401Z,14.20
2017-08-10T01:35:09.783Z,14.90
2017-08-10T01:37:38.159Z,17.00
2017-08-10T01:40:06.535Z,19.63
2017-08-10T01:42:34.903Z,18.87
2017-08-10T01:45:03.487Z,20.23
2017-08-10T01:47:32.564Z,22.53
2017-08-10T01:50:00.856Z,17.40
2017-08-10T01:52:29.950Z,18.43
2017-08-10T01:54:59.150Z,20.53
2017-08-10T01:57:28.254Z,19.87
2017-08-10T01:59:57.322Z,18.07
2017-08-10T02:02:25.676Z,18.80
2017-08-10T02:04:54.018Z,16.40
2017-08-10T02:07:22.355Z,16.80
2017-08-10T02:09:50.650Z,18.90
2017-08-10T02:12:19.953Z,18.30
2017-08-10T02:14:49.014Z,14.67
2017-08-10T02:17:17.334Z,15.63
2017-08-10T02:19:45.711Z,17.33
2017-08-10T02:22:14.083Z,18.30
2017-08-10T02:24:42.417Z,16.60
2017-08-10T02:27:11.137Z,18.00
2017-08-10T02:29:39.478Z,16.90
2017-08-10T02:32:07.899Z,16.50
2017-08-10T02:34:36.275Z,15.87
2017-08-10T02:37:04.662Z,15.67
2017-08-10T02:39:33.338Z,16.87
2017-08-10T02:42:01.828Z,16.47
2017-08-10T02:44:30.891Z,17.80
2017-08-10T02:46:59.220Z,15.00
2017-08-10T02:49:27.899Z,17.40
2017-08-10T02:51:56.263Z,18.07
2017-08-10T02:54:25.339Z,15.90
2017-08-10T02:56:54.442Z,16.93
2017-08-10T02:59:23.514Z,17.00
2017-08-10T03:01:52.630Z,15.97
2017-08-10T03:04:20.923Z,18.93
2017-08-10T03:06:49.487Z,17.33
2017-08-10T03:09:18.589Z,18.20
2017-08-10T03:11:47.654Z,15.03
2017-08-10T03:14:15.977Z,16.83
2017-08-10T03:16:44.327Z,17.53
2017-08-10T03:19:13.414Z,17.23
2017-08-10T03:21:41.709Z,17.40
2017-08-10T03:24:10.907Z,18.33
2017-08-10T03:26:39.292Z,16.50
2017-08-10T03:29:07.667Z,16.70
2017-08-10T03:31:36.035Z,14.23
2017-08-10T03:34:04.825Z,15.40
2017-08-10T03:36:33.906Z,16.53
2017-08-10T03:39:03.024Z,15.17
2017-08-10T03:41:32.103Z,17.33
2017-08-10T03:44:01.172Z,17.97
2017-08-10T03:46:29.514Z,16.97
2017-08-10T03:48:57.823Z,16.37
2017-08-10T03:51:26.946Z,17.53
2017-08-10T03:53:56.047Z,15.90
2017-08-10T03:56:24.434Z,19.77
2017-08-10T03:58:52.803Z,19.23
2017-08-10T04:01:21.904Z,18.63
2017-08-10T04:03:50.996Z,17.03
2017-08-10T04:06:20.064Z,18.03
2017-08-10T04:08:48.406Z,20.73
2017-08-10T04:11:16.751Z,19.70
2017-08-10T04:13:45.319Z,20.20
2017-08-10T04:16:13.645Z,18.33
2017-08-10T04:18:41.979Z,17.60
2017-08-10T04:21:11.183Z,19.60
2017-08-10T04:23:40.270Z,19.33
2017-08-10T04:26:08.626Z,16.10
2017-08-10T04:28:36.935Z,18.50
2017-08-10T04:31:05.267Z,18.20
2017-08-10T04:33:33.669Z,18.80
2017-08-10T04:36:02.779Z,16.67
2017-08-10T04:38:31.659Z,19.87
2017-08-10T04:41:00.955Z,18.40
2017-08-10T04:43:30.025Z,18.93
2017-08-10T04:45:58.319Z,16.03
2017-08-10T04:48:27.434Z,17.97
2017-08-10T04:50:55.806Z,19.23
2017-08-10T04:53:24.272Z,17.90
2017-08-10T04:55:53.356Z,16.97
2017-08-10T04:58:21.684Z,14.80
2017-08-10T05:00:50.018Z,15.50
2017-08-10T05:03:19.143Z,15.17
2017-08-10T05:05:47.499Z,14.57
2017-08-10T05:08:16.805Z,22.40
2017-08-10T05:10:45.876Z,19.37
2017-08-10T05:13:14.198Z,17.73
2017-08-10T05:15:42.556Z,17.80
2017-08-10T05:18:11.667Z,15.47
2017-08-10T05:20:40.025Z,15.97
2017-08-10T05:23:08.464Z,17.10
2017-08-10T05:25:37.190Z,17.13
2017-08-10T05:28:06.283Z,16.63
2017-08-10T05:30:35.586Z,16.17
2017-08-10T05:33:04.659Z,17.70
2017-08-10T05:35:32.972Z,18.63
2017-08-10T05:38:02.062Z,17.70
2017-08-10T05:40:31.110Z,16.50
2017-08-10T05:42:59.478Z,17.17
2017-08-10T05:45:27.782Z,15.70
2017-08-10T05:47:56.116Z,19.17
2017-08-10T05:50:24.430Z,17.00
2017-08-10T05:52:52.753Z,16.73
2017-08-10T05:55:21.066Z,17.20
2017-08-10T05:57:49.390Z,16.47
2017-08-10T06:00:17.711Z,17.73
2017-08-10T06:02:46.238Z,19.10
2017-08-10T06:05:15.313Z,18.17
2017-08-10T06:07:43.606Z,20.50
2017-08-10T06:10:11.926Z,18.77
2017-08-10T06:12:40.210Z,18.77
2017-08-10T06:15:08.530Z,20.73
2017-08-10T06:17:36.833Z,19.43
2017-08-10T06:20:05.157Z,21.00
2017-08-10T06:22:33.454Z,20.57
2017-08-10T06:25:02.550Z,21.77
2017-08-10T06:27:31.002Z,20.20
2017-08-10T06:29:59.329Z,21.77
2017-08-10T06:32:27.642Z,21.97
2017-08-10T06:34:55.936Z,23.60
2017-08-10T06:37:24.365Z,21.40
2017-08-10T06:39:52.661Z,21.20
2017-08-10T06:42:21.018Z,25.80
2017-08-10T06:44:49.327Z,24.23
2017-08-10T06:47:17.676Z,23.63
2017-08-10T06:49:46.004Z,24.50
2017-08-10T06:52:14.636Z,25.03
2017-08-10T06:54:42.942Z,22.70
2017-08-10T06:57:11.268Z,26.30
2017-08-10T06:59:40.372Z,22.67
2017-08-10T07:02:09.434Z,21.73
2017-08-10T07:04:37.764Z,21.83
2017-08-10T07:07:06.074Z,22.83
2017-08-10T07:09:34.410Z,24.70
2017-08-10T07:12:02.761Z,22.57
2017-08-10T07:14:31.189Z,23.03
2017-08-10T07:16:59.491Z,21.97
2017-08-10T07:19:27.808Z,20.60
2017-08-10T07:21:56.144Z,19.47
2017-08-10T07:24:24.451Z,20.63
2017-08-10T07:26:53.548Z,19.13
2017-08-10T07:29:21.842Z,20.13
2017-08-10T07:31:51.743Z,21.97
2017-08-10T07:34:20.806Z,20.67
2017-08-10T07:36:49.125Z,19.87
2017-08-10T07:39:17.439Z,19.83
2017-08-10T07:41:45.772Z,19.20
2017-08-10T07:46:49.278Z,20.07
2017-08-10T07:49:18.374Z,21.07
2017-08-10T07:51:47.476Z,22.20
2017-08-10T07:54:15.851Z,21.77
2017-08-10T07:56:44.230Z,24.00
2017-08-10T07:59:12.555Z,21.67
2017-08-10T08:01:41.619Z,19.73
2017-08-10T08:04:10.772Z,21.40
2017-08-10T08:06:39.854Z,21.93
2017-08-10T08:09:08.270Z,23.30
2017-08-10T08:11:36.620Z,23.33
2017-08-10T08:14:05.847Z,21.87
2017-08-10T08:16:34.923Z,21.90
2017-08-10T08:19:03.255Z,23.17
2017-08-10T08:21:31.577Z,23.80
2017-08-10T08:24:00.786Z,23.43
2017-08-10T08:26:29.130Z,23.10
2017-08-10T08:28:57.899Z,25.07
2017-08-10T08:31:26.242Z,24.43
2017-08-10T08:33:54.545Z,24.47
2017-08-10T08:36:22.988Z,23.87
2017-08-10T08:38:52.204Z,24.23
2017-08-10T08:41:20.762Z,23.17
2017-08-10T08:43:49.146Z,22.83
2017-08-10T08:46:17.617Z,20.43
2017-08-10T08:48:46.756Z,24.53
2017-08-10T08:51:15.085Z,24.17
2017-08-10T08:53:44.185Z,22.70
2017-08-10T08:56:13.268Z,20.20
2017-08-10T08:58:42.381Z,24.63
2017-08-10T09:01:11.447Z,21.77
2017-08-10T09:03:39.859Z,25.87
2017-08-10T09:06:08.194Z,21.00
2017-08-10T09:08:37.315Z,23.93
2017-08-10T09:11:05.762Z,22.50
2017-08-10T09:13:34.079Z,21.07
2017-08-10T09:16:02.524Z,20.33
2017-08-10T09:18:30.854Z,21.03
2017-08-10T09:21:00.034Z,22.90
2017-08-10T09:23:29.111Z,20.53
2017-08-10T09:25:58.222Z,19.30
2017-08-10T09:28:28.038Z,20.33
2017-08-10T09:30:56.628Z,18.20
2017-08-10T09:33:24.966Z,19.00
2017-08-10T09:35:53.471Z,18.80
2017-08-10T09:38:22.579Z,19.33
2017-08-10T09:40:50.915Z,19.03
2017-08-10T09:43:19.230Z,17.47
2017-08-10T09:45:48.750Z,17.20
2017-08-10T09:48:17.118Z,15.40
2017-08-10T09:50:45.438Z,16.07
2017-08-10T09:53:13.867Z,19.30
2017-08-10T09:55:42.969Z,17.00
2017-08-10T09:58:12.055Z,18.67
2017-08-10T10:00:40.374Z,17.10
2017-08-10T10:03:08.919Z,17.83
2017-08-10T10:05:37.299Z,18.27
2017-08-10T10:08:06.503Z,17.57
2017-08-10T10:10:34.846Z,17.10
2017-08-10T10:13:03.943Z,20.20
2017-08-10T10:15:32.751Z,19.03
2017-08-10T10:18:01.823Z,23.57
2017-08-10T10:20:30.933Z,23.00
2017-08-10T10:22:59.286Z,21.37
2017-08-10T10:25:28.427Z,22.20
2017-08-10T10:27:56.773Z,19.80
2017-08-10T10:30:26.091Z,19.60
2017-08-10T10:32:54.524Z,17.47
2017-08-10T10:35:22.851Z,17.53
2017-08-10T10:37:51.962Z,19.50
2017-08-10T10:40:21.242Z,19.13
2017-08-10T10:42:49.578Z,20.23
2017-08-10T10:45:18.693Z,17.53
2017-08-10T10:47:47.827Z,18.33
2017-08-10T10:50:16.143Z,18.27
2017-08-10T10:52:44.675Z,20.57
2017-08-10T10:55:13.749Z,22.63
2017-08-10T10:57:42.136Z,20.73
2017-08-10T11:00:10.470Z,20.87
2017-08-10T11:02:38.770Z,23.50
2017-08-10T11:05:07.083Z,20.50
2017-08-10T11:07:35.444Z,18.70
2017-08-10T11:10:03.824Z,19.37
2017-08-10T11:12:32.322Z,20.00
2017-08-10T11:15:00.650Z,20.63
2017-08-10T11:17:29.025Z,23.10
2017-08-10T11:19:57.449Z,24.07
2017-08-10T11:22:26.541Z,23.23
2017-08-10T11:24:54.914Z,23.83
2017-08-10T11:27:24.012Z,22.43
2017-08-10T11:29:52.793Z,23.60
2017-08-10T11:32:21.855Z,24.10
2017-08-10T11:34:50.978Z,24.03
2017-08-10T11:37:19.367Z,25.57
2017-08-10T11:39:48.462Z,25.63
2017-08-10T11:42:16.796Z,24.60
2017-08-10T11:44:45.166Z,23.77
2017-08-10T11:47:13.459Z,25.60
2017-08-10T11:49:41.779Z,24.80
2017-08-10T11:52:10.868Z,25.27
2017-08-10T11:54:39.255Z,23.03
2017-08-10T11:57:07.922Z,22.37
2017-08-10T11:59:36.248Z,20.70
2017-08-10T12:02:05.181Z,25.80
2017-08-10T12:04:34.388Z,22.63
2017-08-10T12:07:03.482Z,23.70
2017-08-10T12:09:31.965Z,24.73
2017-08-10T12:12:00.337Z,25.13
2017-08-10T12:14:29.539Z,21.07
2017-08-10T12:16:58.626Z,26.63
2017-08-10T12:19:27.014Z,40.83
2017-08-10T12:21:55.341Z,24.97
2017-08-10T12:24:23.880Z,25.10
2017-08-10T12:26:52.262Z,25.10
2017-08-10T12:29:21.328Z,23.47
2017-08-10T12:31:49.715Z,23.10
2017-08-10T12:34:18.812Z,22.77
2017-08-10T12:36:47.955Z,23.93
2017-08-10T12:39:16.276Z,24.93
2017-08-10T12:41:45.379Z,24.87
2017-08-10T12:44:14.447Z,21.60
2017-08-10T12:46:42.783Z,26.57
2017-08-10T12:49:11.079Z,24.80
2017-08-10T12:51:39.723Z,24.17
2017-08-10T12:54:08.037Z,21.50
2017-08-10T12:56:36.343Z,21.40
2017-08-10T12:59:04.678Z,23.73
2017-08-10T13:01:33.041Z,18.63
2017-08-10T13:04:01.409Z,19.60
2017-08-10T13:06:29.687Z,18.20
2017-08-10T13:08:58.768Z,17.73
2017-08-10T13:11:27.847Z,16.80
2017-08-10T13:13:56.947Z,22.07
2017-08-10T13:16:25.332Z,18.50
2017-08-10T13:18:54.630Z,19.30
2017-08-10T13:21:23.731Z,16.63
2017-08-10T13:23:52.054Z,18.20
2017-08-10T13:26:20.364Z,17.70
2017-08-10T13:28:48.690Z,17.13
2017-08-10T13:31:17.023Z,19.37
2017-08-10T13:33:45.611Z,20.33
2017-08-10T13:36:13.996Z,22.07
2017-08-10T13:38:43.099Z,18.20
2017-08-10T13:41:11.441Z,19.47
2017-08-10T13:43:39.739Z,17.67
2017-08-10T13:46:08.845Z,19.30
2017-08-10T13:48:37.163Z,20.60
2017-08-10T13:51:05.907Z,18.03
2017-08-10T13:53:34.287Z,19.20
2017-08-10T13:56:03.381Z,19.13
2017-08-10T13:58:32.464Z,16.67
2017-08-10T14:01:01.573Z,25.33
2017-08-10T14:03:29.883Z,19.53
2017-08-10T14:05:58.193Z,18.87
2017-08-10T14:08:26.551Z,19.50
2017-08-10T14:10:54.905Z,19.67
2017-08-10T14:13:23.591Z,18.47
2017-08-10T14:15:51.889Z,13.50
2017-08-10T14:18:20.231Z,13.77
2017-08-10T14:20:48.573Z,16.63
2017-08-10T14:23:16.875Z,16.43
2017-08-10T14:25:45.223Z,13.07
2017-08-10T14:28:13.627Z,14.70
2017-08-10T14:30:41.976Z,14.57
2017-08-10T14:33:10.278Z,13.20
2017-08-10T14:35:38.651Z,10.50
2017-08-10T14:38:07.751Z,12.63
2017-08-10T14:40:36.226Z,10.20
2017-08-10T14:43:04.561Z,10.27
2017-08-10T14:45:32.879Z,8.50
2017-08-10T14:48:01.962Z,8.53
2017-08-10T14:50:30.364Z,8.47
2017-08-10T14:52:58.717Z,8.03
2017-08-10T14:55:27.830Z,6.90
2017-08-10T14:57:56.922Z,5.60
2017-08-10T15:00:25.215Z,5.13
2017-08-10T15:02:53.543Z,6.10
2017-08-10T15:05:21.844Z,4.23
2017-08-10T15:07:51.147Z,5.00
2017-08-10T15:10:20.130Z,6.30
2017-08-10T15:12:49.210Z,5.10
2017-08-10T15:15:17.534Z,6.43
2017-08-10T15:17:46.581Z,5.37
2017-08-10T15:20:14.882Z,5.90
2017-08-10T15:22:43.953Z,6.93
2017-08-10T15:25:12.287Z,6.53
2017-08-10T15:27:40.569Z,5.90
2017-08-10T15:30:08.906Z,7.00
2017-08-10T15:32:37.974Z,7.47
2017-08-10T15:35:06.292Z,5.20
2017-08-10T15:37:34.660Z,6.73
2017-08-10T15:40:03.134Z,6.90
2017-08-10T15:42:31.471Z,8.73
2017-08-10T15:44:59.751Z,7.30
2017-08-10T15:47:28.168Z,6.60
2017-08-10T15:49:57.246Z,10.53
2017-08-10T15:52:26.458Z,7.90
2017-08-10T15:54:55.523Z,9.23
2017-08-10T15:57:23.841Z,8.27
2017-08-10T15:59:52.906Z,5.93
2017-08-10T16:02:21.325Z,7.63
2017-08-10T16:04:50.461Z,8.43
2017-08-10T16:07:18.986Z,7.93
2017-08-10T16:09:48.103Z,7.10
2017-08-10T16:12:16.406Z,12.97
2017-08-10T16:14:44.726Z,6.67
2017-08-10T16:17:13.788Z,7.13
2017-08-10T16:19:42.110Z,6.63
2017-08-10T16:22:10.391Z,8.00
2017-08-10T16:24:38.712Z,7.53
2017-08-10T16:27:07.010Z,9.27
2017-08-10T16:29:35.338Z,7.37
2017-08-10T16:32:03.648Z,10.90
2017-08-10T16:34:31.978Z,10.67
2017-08-10T16:37:00.290Z,11.17
2017-08-10T16:39:28.773Z,9.10
2017-08-10T16:41:57.107Z,8.07
2017-08-10T16:44:26.208Z,8.50
2017-08-10T16:46:54.528Z,9.20
2017-08-10T16:49:22.819Z,7.73
2017-08-10T16:51:51.153Z,9.60
2017-08-10T16:54:19.478Z,12.20
2017-08-10T16:56:47.867Z,13.47
2017-08-10T16:59:16.946Z,11.20
2017-08-10T17:01:45.295Z,14.40
2017-08-10T17:04:13.595Z,11.40
2017-08-10T17:06:42.306Z,9.20
2017-08-10T17:09:11.371Z,8.13
2017-08-10T17:11:39.699Z,11.80
2017-08-10T17:14:08.068Z,10.83
2017-08-10T17:16:36.376Z,10.20
2017-08-10T17:19:04.694Z,11.07
2017-08-10T17:21:33.090Z,10.87
2017-08-10T17:24:02.398Z,10.77
2017-08-10T17:26:30.770Z,12.17
2017-08-10T17:28:59.732Z,11.37
2017-08-10T17:31:28.846Z,9.20
2017-08-10T17:33:57.463Z,12.00
2017-08-10T17:36:25.806Z,10.83
2017-08-10T17:38:54.209Z,11.37
2017-08-10T17:41:22.537Z,11.87
2017-08-10T17:43:50.836Z,13.77
2017-08-10T17:46:19.162Z,14.70
2017-08-10T17:48:47.479Z,10.60
2017-08-10T17:51:15.824Z,12.13
2017-08-10T17:53:44.125Z,11.47
2017-08-10T17:56:12.775Z,13.13
2017-08-10T17:58:41.071Z,12.23
2017-08-10T18:01:09.375Z,11.00
2017-08-10T18:03:37.775Z,12.77
2017-08-10T18:06:06.846Z,11.00
2017-08-10T18:08:35.231Z,12.50
2017-08-10T18:11:04.300Z,11.00
2017-08-10T18:13:32.634Z,14.10
2017-08-10T18:16:00.927Z,12.83
2017-08-10T18:18:29.266Z,12.00
2017-08-10T18:20:58.348Z,11.87
2017-08-10T18:23:26.811Z,11.80
2017-08-10T18:25:55.911Z,13.50
2017-08-10T18:28:24.224Z,13.50
2017-08-10T18:30:52.583Z,15.30
2017-08-10T18:33:20.878Z,13.13
2017-08-10T18:35:49.230Z,15.07
2017-08-10T18:38:18.344Z,14.17
2017-08-10T18:40:47.448Z,14.77
2017-08-10T18:43:15.753Z,13.87
2017-08-10T18:45:44.098Z,13.30
2017-08-10T18:48:13.040Z,11.90
2017-08-10T18:50:41.369Z,12.10
2017-08-10T18:53:10.438Z,12.60
2017-08-10T18:55:38.761Z,14.03
2017-08-10T18:58:07.116Z,12.93
2017-08-10T19:00:36.202Z,13.87
2017-08-10T19:03:05.267Z,13.97
2017-08-10T19:05:33.771Z,13.93
2017-08-10T19:08:02.872Z,14.70
2017-08-10T19:10:31.943Z,12.93
2017-08-10T19:13:00.342Z,13.40
2017-08-10T19:15:29.481Z,13.70
2017-08-10T19:17:57.833Z,13.60
2017-08-10T19:20:26.194Z,13.57
2017-08-10T19:22:54.541Z,13.87
2017-08-10T19:25:22.931Z,14.30
2017-08-10T19:27:52.049Z,13.90
2017-08-10T19:30:20.367Z,12.07
2017-08-10T19:32:48.718Z,11.50
2017-08-10T19:35:17.070Z,12.50
2017-08-10T19:37:45.414Z,13.83
2017-08-10T19:40:13.759Z,12.63
2017-08-10T19:42:42.542Z,12.17
2017-08-10T19:45:10.873Z,15.83
2017-08-10T19:47:40.036Z,13.23
2017-08-10T19:50:08.380Z,12.70
2017-08-10T19:52:36.715Z,14.50
2017-08-10T19:55:05.834Z,11.43
2017-08-10T19:57:34.228Z,14.17
2017-08-10T20:00:03.337Z,12.53
2017-08-10T20:02:31.711Z,12.77
2017-08-10T20:05:00.071Z,13.67
2017-08-10T20:07:29.151Z,15.57
2017-08-10T20:09:58.268Z,14.67
2017-08-10T20:12:26.639Z,11.80
2017-08-10T20:14:55.948Z,12.50
2017-08-10T20:17:24.274Z,13.90
2017-08-10T20:19:52.655Z,14.97
2017-08-10T20:22:21.062Z,15.17
2017-08-10T20:24:49.366Z,12.10
2017-08-10T20:27:17.702Z,11.87
2017-08-10T20:29:46.790Z,11.60
2017-08-10T20:32:15.908Z,14.70
2017-08-10T20:34:45.030Z,14.47
2017-08-10T20:37:13.491Z,14.47
2017-08-10T20:39:42.569Z,15.70
2017-08-10T20:42:10.964Z,12.27
2017-08-10T20:44:39.299Z,14.40
2017-08-10T20:47:07.613Z,12.20
2017-08-10T20:49:37.387Z,10.90
2017-08-10T20:52:05.683Z,14.50
2017-08-10T20:54:34.076Z,13.50
2017-08-10T20:57:02.424Z,14.00
2017-08-10T20:59:30.840Z,12.43
2017-08-10T21:01:59.146Z,14.77
2017-08-10T21:04:27.514Z,14.63
2017-08-10T21:06:55.875Z,14.57
2017-08-10T21:09:24.947Z,12.93
2017-08-10T21:11:53.275Z,12.60
2017-08-10T21:14:21.724Z,13.10
2017-08-10T21:16:50.090Z,13.60
2017-08-10T21:19:19.170Z,16.13
2017-08-10T21:21:47.567Z,13.43
2017-08-10T21:24:16.638Z,13.00
2017-08-10T21:26:44.962Z,14.63
2017-08-10T21:29:13.315Z,12.07
2017-08-10T21:31:42.613Z,12.70
2017-08-10T21:34:10.906Z,17.03
2017-08-10T21:36:40.180Z,15.67
2017-08-10T21:39:08.509Z,14.97
2017-08-10T21:41:36.814Z,16.67
2017-08-10T21:44:05.138Z,23.10
2017-08-10T21:46:34.235Z,16.03
2017-08-10T21:49:02.592Z,15.90
2017-08-10T21:51:30.865Z,15.97
2017-08-10T21:54:00.066Z,15.47
2017-08-10T21:56:29.167Z,16.60
2017-08-10T21:58:57.744Z,14.00
2017-08-10T22:01:26.119Z,15.20
2017-08-10T22:03:55.199Z,14.40
2017-08-10T22:06:23.592Z,17.57
2017-08-10T22:08:52.693Z,14.50
2017-08-10T22:11:21.068Z,13.53
2017-08-10T22:13:50.126Z,12.00
2017-08-10T22:16:18.543Z,13.37
2017-08-10T22:18:47.603Z,15.67
2017-08-10T22:21:16.110Z,16.97
2017-08-10T22:23:45.178Z,14.33
2017-08-10T22:26:14.273Z,16.60
2017-08-10T22:28:42.680Z,17.90
2017-08-10T22:31:10.987Z,17.10
2017-08-10T22:33:39.333Z,16.63
2017-08-10T22:36:08.403Z,18.37
2017-08-10T22:38:36.732Z,17.93
2017-08-10T22:41:05.197Z,17.90
2017-08-10T22:43:34.482Z,16.83
2017-08-10T22:46:02.761Z,17.00
2017-08-10T22:48:31.050Z,16.80
2017-08-10T22:50:59.417Z,17.97
2017-08-10T22:53:28.484Z,17.50
2017-08-10T22:55:56.900Z,17.47
2017-08-10T22:58:25.963Z,17.27
2017-08-10T23:00:55.114Z,18.37
2017-08-10T23:03:23.418Z,18.70
2017-08-10T23:05:51.871Z,26.33
2017-08-10T23:08:20.221Z,20.27
2017-08-10T23:10:48.529Z,17.90
2017-08-10T23:13:16.887Z,21.93
2017-08-10T23:15:45.209Z,16.00
2017-08-10T23:18:13.549Z,16.57
2017-08-10T23:20:41.898Z,16.97
2017-08-10T23:23:10.991Z,15.53
2017-08-10T23:25:40.058Z,18.73
2017-08-10T23:28:08.471Z,17.47
2017-08-10T23:30:37.151Z,16.00
2017-08-10T23:33:06.249Z,16.47
2017-08-10T23:35:35.447Z,16.80
2017-08-10T23:38:04.515Z,18.30
2017-08-10T23:40:32.919Z,14.77
2017-08-10T23:43:01.290Z,15.90
2017-08-10T23:45:30.385Z,14.37
2017-08-10T23:47:59.466Z,14.90
2017-08-10T23:50:27.786Z,18.03
2017-08-10T23:52:56.137Z,15.40
2017-08-10T23:55:25.227Z,15.90
2017-08-10T23:57:54.314Z,15.60
